createdAt,value
2023-04-07T00:01:08.028Z,3.85
2023-04-07T00:03:35.736Z,3.94
2023-04-07T00:06:03.287Z,3.86
2023-04-07T00:08:30.369Z,3.95
2023-04-07T00:10:58.465Z,3.81
2023-04-07T00:13:26.347Z,3.91
2023-04-07T00:15:53.695Z,3.98
2023-04-07T00:18:20.876Z,4.00
2023-04-07T00:20:48.312Z,4.11
2023-04-07T00:23:15.633Z,4.02
2023-04-07T00:25:43.094Z,4.17
2023-04-07T00:28:10.171Z,4.13
2023-04-07T00:30:37.558Z,3.97
2023-04-07T00:33:04.699Z,3.92
2023-04-07T00:35:37.183Z,4.05
2023-04-07T00:38:04.262Z,4.19
2023-04-07T00:40:31.568Z,4.06
2023-04-07T00:42:58.616Z,4.00
2023-04-07T00:45:25.924Z,4.03
2023-04-07T00:47:53.140Z,3.94
2023-04-07T00:50:20.573Z,4.08
2023-04-07T00:52:47.595Z,4.21
2023-04-07T00:55:14.919Z,4.04
2023-04-07T00:57:42.001Z,3.99
2023-04-07T01:00:10.033Z,4.17
2023-04-07T01:02:56.719Z,4.22
2023-04-07T01:05:50.657Z,4.24
2023-04-07T01:08:24.030Z,4.20
2023-04-07T01:10:59.995Z,4.26
2023-04-07T01:13:33.451Z,4.42
2023-04-07T01:16:17.314Z,4.11
2023-04-07T01:18:53.553Z,4.09
2023-04-07T01:21:25.476Z,3.98
2023-04-07T01:24:05.621Z,4.25
2023-04-07T01:26:33.727Z,4.27
2023-04-07T01:29:19.615Z,4.35
2023-04-07T01:31:49.430Z,4.37
2023-04-07T01:34:18.307Z,4.30
2023-04-07T01:36:47.097Z,4.32
2023-04-07T01:39:15.610Z,4.15
2023-04-07T01:41:44.692Z,4.11
2023-04-07T01:44:12.666Z,4.31
2023-04-07T01:46:40.391Z,4.49
2023-04-07T01:49:08.120Z,4.37
2023-04-07T01:51:36.001Z,4.38
2023-04-07T01:54:04.304Z,4.59
2023-04-07T01:56:31.853Z,4.61
2023-04-07T01:59:01.113Z,4.42
2023-04-07T02:01:29.813Z,4.41
2023-04-07T02:04:07.802Z,4.29
2023-04-07T02:06:57.853Z,4.33
2023-04-07T02:09:38.469Z,4.39
2023-04-07T02:12:09.087Z,4.60
2023-04-07T02:14:41.093Z,4.62
2023-04-07T02:17:11.820Z,4.40
2023-04-07T02:19:39.577Z,4.27
2023-04-07T02:22:07.099Z,4.28
2023-04-07T02:24:34.150Z,4.29
2023-04-07T02:27:02.220Z,4.40
2023-04-07T02:29:29.570Z,4.61
2023-04-07T02:31:56.935Z,4.44
2023-04-07T02:34:23.905Z,4.49
2023-04-07T02:36:51.572Z,4.47
2023-04-07T02:39:18.739Z,4.37
2023-04-07T02:41:46.219Z,4.50
2023-04-07T02:44:13.366Z,4.50
2023-04-07T02:46:41.376Z,4.50
2023-04-07T02:49:08.416Z,4.39
2023-04-07T02:51:35.851Z,4.55
2023-04-07T02:54:02.855Z,4.39
2023-04-07T02:56:31.112Z,4.48
2023-04-07T02:58:58.216Z,4.28
2023-04-07T03:01:26.467Z,4.33
2023-04-07T03:03:53.917Z,4.36
2023-04-07T03:06:24.876Z,4.52
2023-04-07T03:09:07.110Z,4.53
2023-04-07T03:11:34.425Z,4.55
2023-04-07T03:14:01.489Z,4.52
2023-04-07T03:16:31.197Z,4.35
2023-04-07T03:19:09.465Z,4.48
2023-04-07T03:21:40.852Z,4.40
2023-04-07T03:24:08.947Z,4.42
2023-04-07T03:26:36.280Z,4.37
2023-04-07T03:29:06.538Z,4.39
2023-04-07T03:31:34.629Z,4.32
2023-04-07T03:34:01.706Z,4.36
2023-04-07T03:36:31.576Z,4.29
2023-04-07T03:39:02.448Z,4.54
2023-04-07T03:41:30.135Z,4.38
2023-04-07T03:43:57.145Z,4.44
2023-04-07T03:46:27.079Z,4.57
2023-04-07T03:48:54.626Z,4.42
2023-04-07T03:51:22.836Z,4.39
2023-04-07T03:53:54.937Z,4.44
2023-04-07T03:56:37.325Z,4.60
2023-04-07T03:59:04.827Z,4.49
2023-04-07T04:01:36.467Z,4.75
2023-04-07T04:04:12.646Z,4.66
2023-04-07T04:06:40.798Z,4.69
2023-04-07T04:09:19.166Z,4.63
2023-04-07T04:11:48.942Z,4.71
2023-04-07T04:14:16.734Z,4.44
2023-04-07T04:16:49.761Z,4.48
2023-04-07T04:19:39.553Z,4.55
2023-04-07T04:22:15.192Z,4.50
2023-04-07T04:24:49.830Z,4.68
2023-04-07T04:27:17.425Z,4.76
2023-04-07T04:29:48.926Z,4.67
2023-04-07T04:32:19.421Z,4.84
2023-04-07T04:34:46.694Z,4.70
2023-04-07T04:37:14.447Z,4.77
2023-04-07T04:39:45.990Z,4.41
2023-04-07T04:42:16.640Z,4.47
2023-04-07T04:44:44.659Z,4.66
2023-04-07T04:47:13.763Z,4.54
2023-04-07T04:49:41.451Z,4.50
2023-04-07T04:52:08.920Z,4.81
2023-04-07T04:54:41.101Z,4.63
2023-04-07T04:57:10.134Z,4.64
2023-04-07T04:59:39.759Z,4.76
2023-04-07T05:02:07.112Z,4.75
2023-04-07T05:04:35.555Z,4.67
2023-04-07T05:07:16.373Z,4.69
2023-04-07T05:09:43.417Z,4.80
2023-04-07T05:12:10.762Z,4.67
2023-04-07T05:14:43.561Z,4.58
2023-04-07T05:17:10.884Z,4.92
2023-04-07T05:19:38.770Z,4.69
2023-04-07T05:22:13.855Z,4.69
2023-04-07T05:24:46.188Z,4.80
2023-04-07T05:27:13.782Z,4.97
2023-04-07T05:29:42.501Z,4.79
2023-04-07T05:32:19.929Z,4.72
2023-04-07T05:34:47.619Z,4.74
2023-04-07T05:37:16.268Z,4.90
2023-04-07T05:39:44.358Z,4.87
2023-04-07T05:42:14.133Z,4.84
2023-04-07T05:44:43.240Z,4.92
2023-04-07T05:47:11.476Z,4.87
2023-04-07T05:49:45.922Z,4.74
2023-04-07T05:52:14.580Z,4.74
2023-04-07T05:54:45.040Z,4.87
2023-04-07T05:57:14.477Z,5.04
2023-04-07T05:59:45.082Z,4.92
2023-04-07T06:02:13.618Z,5.03
2023-04-07T06:04:41.101Z,4.87
2023-04-07T06:07:11.844Z,5.03
2023-04-07T06:09:43.112Z,5.20
2023-04-07T06:12:12.283Z,4.81
2023-04-07T06:14:39.551Z,4.79
2023-04-07T06:17:07.105Z,5.09
2023-04-07T06:19:34.420Z,5.18
2023-04-07T06:22:01.765Z,4.90
2023-04-07T06:24:28.890Z,4.96
2023-04-07T06:26:56.954Z,4.90
2023-04-07T06:29:24.103Z,5.10
2023-04-07T06:31:51.622Z,4.88
2023-04-07T06:34:19.487Z,5.20
2023-04-07T06:36:47.003Z,5.19
2023-04-07T06:39:14.014Z,4.99
2023-04-07T06:41:43.203Z,4.97
2023-04-07T06:44:13.624Z,5.36
2023-04-07T06:46:42.351Z,5.12
2023-04-07T06:49:09.586Z,5.12
2023-04-07T06:51:37.007Z,5.15
2023-04-07T06:54:05.530Z,4.88
2023-04-07T06:56:33.537Z,5.03
2023-04-07T06:59:00.628Z,5.05
2023-04-07T07:01:28.279Z,5.42
2023-04-07T07:03:55.541Z,5.16
2023-04-07T07:06:23.011Z,5.18
2023-04-07T07:08:50.519Z,5.24
2023-04-07T07:11:17.931Z,5.37
2023-04-07T07:13:45.373Z,5.33
2023-04-07T07:16:12.962Z,5.21
2023-04-07T07:18:40.339Z,5.40
2023-04-07T07:21:08.290Z,5.13
2023-04-07T07:23:35.555Z,5.31
2023-04-07T07:26:03.888Z,5.24
2023-04-07T07:28:31.077Z,5.39
2023-04-07T07:30:58.452Z,5.20
2023-04-07T07:33:26.312Z,5.59
2023-04-07T07:35:53.732Z,5.47
2023-04-07T07:38:21.263Z,5.57
2023-04-07T07:40:48.638Z,5.47
2023-04-07T07:43:15.840Z,5.55
2023-04-07T07:45:43.241Z,5.25
2023-04-07T07:48:11.623Z,5.55
2023-04-07T07:50:39.097Z,5.63
2023-04-07T07:53:06.329Z,5.70
2023-04-07T07:55:33.696Z,5.65
2023-04-07T07:58:00.918Z,5.53
2023-04-07T08:00:28.737Z,5.75
2023-04-07T08:02:55.988Z,5.46
2023-04-07T08:05:23.569Z,5.57
2023-04-07T08:07:53.430Z,5.65
2023-04-07T08:10:23.360Z,5.66
2023-04-07T08:12:50.966Z,5.47
2023-04-07T08:15:18.273Z,5.57
2023-04-07T08:17:46.538Z,5.74
2023-04-07T08:20:14.062Z,5.75
2023-04-07T08:22:41.422Z,5.94
2023-04-07T08:25:09.179Z,5.73
2023-04-07T08:27:36.412Z,5.73
2023-04-07T08:30:08.920Z,6.05
2023-04-07T08:32:42.119Z,5.94
2023-04-07T08:35:10.012Z,5.83
2023-04-07T08:37:39.126Z,6.17
2023-04-07T08:40:07.297Z,5.81
2023-04-07T08:42:35.320Z,5.77
2023-04-07T08:45:07.637Z,5.76
2023-04-07T08:47:36.794Z,5.77
2023-04-07T08:50:09.323Z,5.91
2023-04-07T08:52:51.497Z,5.89
2023-04-07T08:55:19.422Z,5.88
2023-04-07T08:57:47.830Z,5.97
2023-04-07T09:00:15.631Z,6.00
2023-04-07T09:02:48.973Z,6.06
2023-04-07T09:05:16.709Z,5.78
2023-04-07T09:07:44.143Z,6.09
2023-04-07T09:10:12.166Z,5.96
2023-04-07T09:12:39.996Z,6.13
2023-04-07T09:15:09.067Z,6.20
2023-04-07T09:17:36.801Z,6.29
2023-04-07T09:20:04.958Z,6.31
2023-04-07T09:22:45.590Z,6.12
2023-04-07T09:25:16.110Z,6.06
2023-04-07T09:28:04.271Z,5.90
2023-04-07T09:30:33.676Z,6.18
2023-04-07T09:33:02.136Z,5.84
2023-04-07T09:35:30.034Z,6.11
2023-04-07T09:38:06.472Z,5.76
2023-04-07T09:40:34.615Z,5.98
2023-04-07T09:43:02.954Z,5.95
2023-04-07T09:45:35.179Z,6.08
2023-04-07T09:48:20.134Z,5.74
2023-04-07T09:50:49.513Z,5.95
2023-04-07T09:53:17.273Z,6.07
2023-04-07T09:55:45.312Z,6.50
2023-04-07T09:58:14.094Z,6.26
2023-04-07T10:00:42.345Z,6.38
2023-04-07T10:03:09.772Z,6.78
2023-04-07T10:05:38.849Z,6.32
2023-04-07T10:08:10.283Z,6.68
2023-04-07T10:10:42.423Z,6.79
2023-04-07T10:13:09.543Z,6.81
2023-04-07T10:15:37.304Z,6.81
2023-04-07T10:18:07.448Z,7.15
2023-04-07T10:20:37.844Z,7.09
2023-04-07T10:23:09.102Z,7.10
2023-04-07T10:25:40.153Z,7.24
2023-04-07T10:28:10.030Z,7.46
2023-04-07T10:30:42.542Z,7.85
2023-04-07T10:33:09.820Z,7.64
2023-04-07T10:36:07.082Z,8.01
2023-04-07T10:38:34.561Z,7.89
2023-04-07T10:41:35.058Z,7.93
2023-04-07T10:44:06.863Z,8.12
2023-04-07T10:46:49.447Z,8.31
2023-04-07T10:49:20.058Z,8.42
2023-04-07T10:52:11.502Z,8.96
2023-04-07T10:54:39.953Z,8.26
2023-04-07T10:57:14.497Z,8.73
2023-04-07T11:00:11.529Z,9.44
2023-04-07T11:02:41.827Z,8.99
2023-04-07T11:05:22.762Z,9.60
2023-04-07T11:07:59.392Z,9.36
2023-04-07T11:10:26.783Z,9.57
2023-04-07T11:13:56.122Z,9.09
2023-04-07T11:16:42.437Z,9.05
2023-04-07T11:19:10.107Z,8.82
2023-04-07T11:21:37.852Z,9.51
2023-04-07T11:24:06.112Z,9.51
2023-04-07T11:26:41.847Z,9.48
2023-04-07T11:29:10.516Z,9.65
2023-04-07T11:31:38.767Z,10.27
2023-04-07T11:34:06.292Z,9.91
2023-04-07T11:36:41.713Z,9.90
2023-04-07T11:39:23.266Z,10.23
2023-04-07T11:41:51.609Z,10.20
2023-04-07T11:44:19.132Z,10.64
2023-04-07T11:46:56.860Z,10.45
2023-04-07T11:49:26.084Z,10.65
2023-04-07T11:52:09.166Z,10.11
2023-04-07T11:54:54.621Z,10.27
2023-04-07T11:57:29.847Z,10.30
2023-04-07T12:00:11.724Z,10.16
2023-04-07T12:02:39.639Z,10.82
2023-04-07T12:05:07.919Z,10.67
2023-04-07T12:11:04.685Z,10.90
2023-04-07T12:13:32.116Z,11.10
2023-04-07T12:16:00.030Z,10.80
2023-04-07T12:18:28.334Z,10.29
2023-04-07T12:20:56.097Z,10.26
2023-04-07T12:23:23.589Z,10.11
2023-04-07T12:25:50.658Z,10.17
2023-04-07T12:28:18.229Z,10.19
2023-04-07T12:30:45.278Z,10.32
2023-04-07T12:33:12.852Z,10.71
2023-04-07T12:35:40.504Z,10.34
2023-04-07T12:38:08.436Z,10.56
2023-04-07T12:40:36.618Z,10.44
2023-04-07T12:43:05.989Z,10.59
2023-04-07T12:45:33.473Z,10.38
2023-04-07T12:48:01.156Z,10.59
2023-04-07T12:50:29.321Z,10.56
2023-04-07T12:52:59.788Z,10.29
2023-04-07T12:55:27.003Z,10.11
2023-04-07T12:57:55.869Z,10.31
2023-04-07T13:00:23.166Z,10.22
2023-04-07T13:02:51.399Z,10.52
2023-04-07T13:05:19.034Z,10.17
2023-04-07T13:07:49.327Z,10.06
2023-04-07T13:10:17.279Z,10.19
2023-04-07T13:12:45.048Z,10.07
2023-04-07T13:15:12.370Z,10.50
2023-04-07T13:17:40.212Z,10.35
2023-04-07T13:20:08.224Z,10.52
2023-04-07T13:22:36.115Z,9.96
2023-04-07T13:25:03.775Z,10.02
2023-04-07T13:27:31.380Z,9.79
2023-04-07T13:29:58.689Z,9.90
2023-04-07T13:32:27.299Z,10.08
2023-04-07T13:34:54.670Z,9.83
2023-04-07T13:37:22.202Z,9.68
2023-04-07T13:39:49.597Z,9.64
2023-04-07T13:42:17.527Z,10.04
2023-04-07T13:44:46.444Z,10.04
2023-04-07T13:47:19.691Z,10.06
2023-04-07T13:49:51.988Z,9.83
2023-04-07T13:52:19.858Z,9.71
2023-04-07T13:54:47.041Z,9.65
2023-04-07T13:57:20.806Z,9.51
2023-04-07T13:59:49.721Z,9.73
2023-04-07T14:02:18.703Z,9.70
2023-04-07T14:04:46.541Z,9.85
2023-04-07T14:07:14.154Z,9.30
2023-04-07T14:09:42.965Z,9.32
2023-04-07T14:12:10.833Z,9.30
2023-04-07T14:14:38.075Z,9.39
2023-04-07T14:17:05.498Z,9.53
2023-04-07T14:19:33.535Z,9.33
2023-04-07T14:22:01.441Z,9.75
2023-04-07T14:24:28.700Z,9.66
2023-04-07T14:26:56.626Z,9.35
2023-04-07T14:29:33.824Z,9.43
2023-04-07T14:32:17.691Z,9.37
2023-04-07T14:34:44.996Z,9.29
2023-04-07T14:37:14.168Z,9.64
2023-04-07T14:39:45.912Z,9.89
2023-04-07T14:42:23.404Z,10.17
2023-04-07T14:44:51.115Z,9.99
2023-04-07T14:47:19.290Z,9.96
2023-04-07T14:49:46.605Z,9.61
2023-04-07T14:52:14.220Z,9.95
2023-04-07T14:54:41.474Z,9.94
2023-04-07T14:57:09.368Z,10.04
2023-04-07T14:59:36.695Z,9.58
2023-04-07T15:02:04.401Z,9.80
2023-04-07T15:04:33.136Z,9.68
2023-04-07T15:07:00.880Z,9.46
2023-04-07T15:09:28.295Z,9.70
2023-04-07T15:11:56.642Z,9.63
2023-04-07T15:14:23.749Z,9.71
2023-04-07T15:16:51.212Z,9.92
2023-04-07T15:19:18.470Z,9.74
2023-04-07T15:21:46.039Z,9.84
2023-04-07T15:24:14.841Z,9.71
2023-04-07T15:26:43.981Z,9.78
2023-04-07T15:29:11.427Z,9.83
2023-04-07T15:31:39.036Z,9.60
2023-04-07T15:34:06.598Z,9.47
2023-04-07T15:36:34.278Z,9.51
2023-04-07T15:39:06.778Z,9.73
2023-04-07T15:41:34.422Z,9.58
2023-04-07T15:44:04.627Z,9.35
2023-04-07T15:46:32.503Z,9.41
2023-04-07T15:49:00.343Z,9.37
2023-04-07T15:51:29.824Z,9.56
2023-04-07T15:53:57.269Z,9.34
2023-04-07T15:56:25.022Z,9.39
2023-04-07T15:58:52.501Z,9.23
2023-04-07T16:01:20.894Z,9.23
2023-04-07T16:03:48.698Z,9.43
2023-04-07T16:06:16.556Z,9.44
2023-04-07T16:08:43.704Z,9.63
2023-04-07T16:11:11.293Z,9.53
2023-04-07T16:13:38.801Z,9.63
2023-04-07T16:16:07.999Z,9.62
2023-04-07T16:18:35.419Z,9.97
2023-04-07T16:21:04.691Z,9.91
2023-04-07T16:23:32.200Z,9.92
2023-04-07T16:25:59.795Z,9.96
2023-04-07T16:28:27.422Z,9.70
2023-04-07T16:30:54.879Z,9.69
2023-04-07T16:33:25.843Z,9.81
2023-04-07T16:35:53.659Z,9.69
2023-04-07T16:38:20.819Z,9.75
2023-04-07T16:41:02.699Z,9.92
2023-04-07T16:43:31.344Z,9.90
2023-04-07T16:46:00.207Z,9.88
2023-04-07T16:48:27.670Z,10.02
2023-04-07T16:50:55.098Z,9.99
2023-04-07T16:53:22.166Z,9.84
2023-04-07T16:55:49.864Z,10.00
2023-04-07T16:58:19.072Z,10.24
2023-04-07T17:00:46.856Z,10.39
2023-04-07T17:03:15.419Z,10.17
2023-04-07T17:05:44.829Z,10.19
2023-04-07T17:08:12.284Z,10.11
2023-04-07T17:10:39.790Z,10.14
2023-04-07T17:13:06.977Z,9.96
2023-04-07T17:15:38.214Z,10.09
2023-04-07T17:18:05.628Z,10.05
2023-04-07T17:20:33.790Z,10.09
2023-04-07T17:23:01.374Z,9.94
2023-04-07T17:25:29.000Z,10.06
2023-04-07T17:27:56.449Z,9.89
2023-04-07T17:30:24.135Z,9.76
2023-04-07T17:32:53.559Z,9.74
2023-04-07T17:35:21.320Z,9.55
2023-04-07T17:37:49.434Z,9.69
2023-04-07T17:40:17.008Z,9.68
2023-04-07T17:42:44.791Z,9.56
2023-04-07T17:45:12.739Z,9.69
2023-04-07T17:47:40.552Z,9.84
2023-04-07T17:50:09.114Z,9.81
2023-04-07T17:52:37.255Z,9.78
2023-04-07T17:55:05.772Z,9.67
2023-04-07T17:57:33.638Z,9.89
2023-04-07T18:00:01.671Z,9.75
2023-04-07T18:02:29.540Z,9.71
2023-04-07T18:05:01.210Z,9.80
2023-04-07T18:07:29.651Z,9.76
2023-04-07T18:10:04.782Z,9.88
2023-04-07T18:12:32.217Z,9.57
2023-04-07T18:14:59.967Z,9.79
2023-04-07T18:17:27.527Z,9.80
2023-04-07T18:19:55.507Z,9.61
2023-04-07T18:22:22.994Z,9.83
2023-04-07T18:24:53.266Z,9.81
2023-04-07T18:27:24.093Z,9.56
2023-04-07T18:29:52.112Z,9.73
2023-04-07T18:32:19.174Z,9.69
2023-04-07T18:34:47.908Z,9.53
2023-04-07T18:37:15.582Z,9.79
2023-04-07T18:39:43.133Z,9.83
2023-04-07T18:42:10.550Z,9.66
2023-04-07T18:44:38.450Z,9.53
2023-04-07T18:47:06.137Z,9.51
2023-04-07T18:49:34.249Z,9.32
2023-04-07T18:52:05.117Z,9.58
2023-04-07T18:54:33.228Z,9.59
2023-04-07T18:57:00.449Z,9.51
2023-04-07T18:59:28.638Z,9.46
2023-04-07T19:01:56.960Z,9.46
2023-04-07T19:04:25.204Z,9.13
2023-04-07T19:06:52.641Z,9.26
2023-04-07T19:09:21.564Z,9.23
2023-04-07T19:11:49.402Z,9.20
2023-04-07T19:14:17.159Z,9.36
2023-04-07T19:16:46.099Z,9.32
2023-04-07T19:19:14.277Z,9.24
2023-04-07T19:21:41.622Z,9.22
2023-04-07T19:24:09.233Z,9.38
2023-04-07T19:26:36.848Z,9.28
2023-04-07T19:29:04.879Z,9.12
2023-04-07T19:31:32.312Z,9.14
2023-04-07T19:34:00.443Z,9.52
2023-04-07T19:36:28.188Z,9.30
2023-04-07T19:38:56.017Z,9.19
2023-04-07T19:41:23.429Z,9.31
2023-04-07T19:43:51.838Z,8.75
2023-04-07T19:46:19.664Z,9.04
2023-04-07T19:48:48.074Z,9.43
2023-04-07T19:51:16.006Z,9.00
2023-04-07T19:53:44.087Z,8.94
2023-04-07T19:56:14.187Z,9.19
2023-04-07T19:58:42.553Z,8.96
2023-04-07T20:01:18.073Z,9.19
2023-04-07T20:03:46.746Z,9.10
2023-04-07T20:06:15.377Z,8.88
2023-04-07T20:08:44.149Z,9.35
2023-04-07T20:11:13.149Z,9.34
2023-04-07T20:13:41.759Z,9.02
2023-04-07T20:16:10.538Z,8.64
2023-04-07T20:18:39.529Z,8.34
2023-04-07T20:21:07.727Z,8.75
2023-04-07T20:23:36.793Z,8.97
2023-04-07T20:26:05.446Z,8.44
2023-04-07T20:28:34.327Z,8.93
2023-04-07T20:31:02.592Z,9.12
2023-04-07T20:33:30.522Z,9.11
2023-04-07T20:35:58.224Z,8.91
2023-04-07T20:38:26.601Z,8.59
2023-04-07T20:40:54.549Z,8.85
2023-04-07T20:43:23.967Z,8.70
2023-04-07T20:45:52.416Z,8.84
2023-04-07T20:48:24.203Z,8.87
2023-04-07T20:50:52.245Z,8.70
2023-04-07T20:53:20.314Z,8.74
2023-04-07T20:55:48.530Z,8.93
2023-04-07T20:58:17.869Z,8.75
2023-04-07T21:00:46.411Z,8.74
2023-04-07T21:03:14.624Z,8.69
2023-04-07T21:05:43.489Z,8.54
2023-04-07T21:08:13.966Z,8.66
2023-04-07T21:10:42.021Z,8.18
2023-04-07T21:13:10.088Z,8.35
2023-04-07T21:15:37.961Z,8.66
2023-04-07T21:18:05.957Z,8.38
2023-04-07T21:20:33.293Z,8.48
2023-04-07T21:23:00.971Z,8.22
2023-04-07T21:25:28.204Z,8.25
2023-04-07T21:27:55.654Z,8.09
2023-04-07T21:30:23.258Z,8.36
2023-04-07T21:32:50.764Z,8.32
2023-04-07T21:35:19.736Z,8.11
2023-04-07T21:37:47.157Z,8.55
2023-04-07T21:40:14.380Z,8.44
2023-04-07T21:42:41.954Z,8.08
2023-04-07T21:45:09.803Z,8.50
2023-04-07T21:47:37.236Z,8.38
2023-04-07T21:50:04.955Z,8.19
2023-04-07T21:52:32.734Z,7.97
2023-04-07T21:54:59.967Z,8.11
2023-04-07T21:57:27.492Z,8.24
2023-04-07T21:59:54.852Z,8.32
2023-04-07T22:02:22.430Z,8.53
2023-04-07T22:04:49.714Z,8.49
2023-04-07T22:07:17.361Z,8.27
2023-04-07T22:09:44.533Z,8.43
2023-04-07T22:12:12.221Z,8.17
2023-04-07T22:14:39.380Z,8.40
2023-04-07T22:17:07.024Z,8.37
2023-04-07T22:19:34.183Z,8.16
2023-04-07T22:22:01.573Z,8.59
2023-04-07T22:24:28.671Z,8.03
2023-04-07T22:26:57.322Z,8.01
2023-04-07T22:29:24.360Z,8.38
2023-04-07T22:31:51.724Z,8.19
2023-04-07T22:34:18.859Z,8.26
2023-04-07T22:36:46.306Z,7.95
2023-04-07T22:39:13.352Z,7.71
2023-04-07T22:41:40.749Z,7.95
2023-04-07T22:44:07.763Z,7.74
2023-04-07T22:46:35.040Z,7.79
2023-04-07T22:49:02.127Z,7.69
2023-04-07T22:51:29.479Z,8.05
2023-04-07T22:53:57.205Z,7.75
2023-04-07T22:56:24.645Z,7.77
2023-04-07T22:58:52.064Z,7.66
2023-04-07T23:01:19.593Z,7.94
2023-04-07T23:03:47.373Z,7.89
2023-04-07T23:06:14.832Z,7.58
2023-04-07T23:08:41.854Z,7.72
2023-04-07T23:11:09.907Z,7.99
2023-04-07T23:13:38.011Z,7.74
2023-04-07T23:16:06.393Z,7.87
2023-04-07T23:18:33.532Z,7.56
2023-04-07T23:21:01.142Z,8.01
2023-04-07T23:23:28.145Z,7.56
2023-04-07T23:25:55.424Z,7.68
2023-04-07T23:28:22.405Z,7.64
2023-04-07T23:30:49.690Z,7.87
2023-04-07T23:33:16.849Z,8.25
2023-04-07T23:35:44.286Z,7.92
2023-04-07T23:38:11.548Z,7.89
2023-04-07T23:40:38.927Z,8.08
2023-04-07T23:43:06.751Z,8.39
2023-04-07T23:45:34.058Z,8.11
2023-04-07T23:48:01.139Z,8.03
2023-04-07T23:50:28.514Z,8.26
2023-04-07T23:52:56.240Z,8.51
2023-04-07T23:55:23.898Z,8.42
2023-04-07T23:57:50.961Z,8.27
